Time;durP1;ratioP1;P1;durP2;ratioP2;P2;SDS_P1;SDS_P2;PMS_P1;PMS_P2;Temp;Humidity;BMP_temperature;BMP_pressure;BME280_temperature;BME280_humidity;BME280_pressure;Samples;Min_cycle;Max_cycle;Signal;HPM_P1;HPM_P2
2023/01/21 00:02:16;;;;;;;3.65;2.00;;;;;;;14.35;71.74;101164.75;4956844;28;20504;-87
2023/01/21 00:04:42;;;;;;;2.30;1.88;;;;;;;14.30;71.87;101158.38;4969443;28;20633;-87
2023/01/21 00:07:07;;;;;;;2.38;1.90;;;;;;;14.09;71.63;101120.63;4955405;28;20047;-86
2023/01/21 00:09:33;;;;;;;3.38;1.85;;;;;;;14.24;71.87;101148.50;4957299;28;20114;-87
2023/01/21 00:12:01;;;;;;;3.10;1.75;;;;;;;14.06;71.60;101113.53;4925625;28;20390;-87
2023/01/21 00:14:28;;;;;;;2.60;1.95;;;;;;;14.15;72.42;101144.56;4945860;28;20035;-87
2023/01/21 00:16:55;;;;;;;3.08;2.10;;;;;;;14.22;71.76;101160.69;4954584;28;20508;-87
2023/01/21 00:19:21;;;;;;;2.95;1.70;;;;;;;14.09;72.21;101145.16;4954824;28;20089;-87
2023/01/21 00:21:46;;;;;;;3.25;1.80;;;;;;;14.28;71.89;101177.53;4953671;28;20039;-87
2023/01/21 00:24:12;;;;;;;3.20;1.85;;;;;;;14.29;71.87;101179.31;4955278;28;20039;-87
2023/01/21 00:26:38;;;;;;;3.28;1.80;;;;;;;14.18;71.68;101163.06;4953256;28;20474;-87
2023/01/21 00:29:03;;;;;;;2.63;1.92;;;;;;;14.37;71.91;101199.88;4941766;28;20035;-87
2023/01/21 00:31:29;;;;;;;3.00;2.00;;;;;;;14.08;72.13;101156.50;4953341;28;20022;-87
2023/01/21 00:33:54;;;;;;;3.03;1.80;;;;;;;13.96;71.49;101141.06;4952129;28;20036;-87
2023/01/21 00:36:21;;;;;;;3.17;1.88;;;;;;;14.22;71.80;101186.94;4952907;28;20028;-87
2023/01/21 00:38:49;;;;;;;;;;;;;;;14.38;71.50;101203.41;4953817;28;20051;-88
2023/01/21 00:41:16;;;;;;;1.83;1.65;;;;;;;14.33;72.00;101203.19;4968249;28;19926;-88
2023/01/21 00:43:43;;;;;;;4.75;1.77;;;;;;;14.15;72.04;101170.81;4953813;28;20039;-88
2023/01/21 00:46:09;;;;;;;3.85;2.75;;;;;;;14.27;71.94;101195.03;4937649;28;20070;-88
2023/01/21 00:48:35;;;;;;;4.13;2.35;;;;;;;14.24;71.73;101197.50;4961226;28;20026;-88
2023/01/21 00:51:01;;;;;;;3.67;2.47;;;;;;;13.94;72.18;101131.34;4952933;28;20020;-88
2023/01/21 00:53:28;;;;;;;5.60;3.15;;;;;;;14.22;71.73;101192.19;4959314;28;20043;-88
2023/01/21 00:55:57;;;;;;;3.55;2.28;;;;;;;14.16;72.22;101177.84;4958929;28;20050;-87
2023/01/21 00:58:23;;;;;;;3.72;2.20;;;;;;;14.07;71.45;101167.81;4957531;28;20180;-87
2023/01/21 01:00:48;;;;;;;5.20;2.47;;;;;;;14.08;71.84;101161.75;4951434;28;20110;-87
2023/01/21 01:03:14;;;;;;;2.35;2.05;;;;;;;13.87;71.39;101134.53;4962480;28;20122;-87
2023/01/21 01:05:41;;;;;;;3.63;2.08;;;;;;;13.95;71.39;101151.50;4948090;28;20117;-87
2023/01/21 01:08:06;;;;;;;3.20;2.08;;;;;;;14.18;71.40;101186.72;4968535;28;20035;-87
2023/01/21 01:10:32;;;;;;;2.85;1.98;;;;;;;14.11;71.48;101176.75;4953501;28;20050;-87
2023/01/21 01:12:59;;;;;;;5.57;2.10;;;;;;;13.92;72.10;101151.38;4967574;28;20059;-87
2023/01/21 01:15:25;;;;;;;4.30;2.10;;;;;;;13.79;72.02;101140.28;4951708;28;20169;-87
2023/01/21 01:17:50;;;;;;;3.50;1.98;;;;;;;13.87;71.37;101139.78;4963138;28;20241;-87
2023/01/21 01:20:17;;;;;;;2.53;2.00;;;;;;;14.09;71.33;101174.06;4964551;28;20031;-87
2023/01/21 01:22:43;;;;;;;2.90;1.88;;;;;;;14.19;71.81;101201.66;4950515;28;20023;-87
2023/01/21 01:25:08;;;;;;;2.65;1.77;;;;;;;14.19;71.44;101199.03;4951692;28;20043;-87
2023/01/21 01:27:34;;;;;;;2.72;1.90;;;;;;;14.16;71.43;101206.75;4947060;28;20147;-87
2023/01/21 01:30:00;;;;;;;2.90;1.85;;;;;;;14.23;71.74;101216.72;4934344;28;20417;-88
2023/01/21 01:32:26;;;;;;;3.55;1.80;;;;;;;14.22;71.38;101225.41;4943496;28;20091;-87
2023/01/21 01:34:51;;;;;;;2.50;1.83;;;;;;;14.13;71.19;101219.75;4951200;28;20038;-87
2023/01/21 01:37:17;;;;;;;3.38;2.10;;;;;;;13.91;71.12;101179.34;4950513;28;20040;-87
2023/01/21 01:39:42;;;;;;;3.60;2.03;;;;;;;13.88;72.15;101178.31;4953559;28;20038;-86
2023/01/21 01:42:16;;;;;;;3.75;2.05;;;;;;;14.10;71.57;101215.25;4950953;28;20027;-87
2023/01/21 01:44:55;;;;;;;4.45;2.15;;;;;;;14.19;71.20;101230.53;4952895;28;20119;-87
2023/01/21 01:47:24;;;;;;;3.53;2.22;;;;;;;14.13;71.72;101225.91;4943846;28;20023;-86
2023/01/21 01:49:50;;;;;;;1.92;1.55;;;;;;;13.94;70.89;101189.09;4952205;28;20035;-86
2023/01/21 01:52:16;;;;;;;2.08;1.80;;;;;;;14.19;71.58;101241.06;4967781;28;20046;-86
2023/01/21 01:54:46;;;;;;;2.65;1.83;;;;;;;13.84;71.69;101182.50;4932161;28;20505;-86
2023/01/21 01:57:13;;;;;;;2.15;1.80;;;;;;;14.15;71.78;101239.09;4951687;28;20046;-86
2023/01/21 01:59:39;;;;;;;2.80;2.03;;;;;;;14.03;71.46;101213.16;4952648;28;20023;-87
2023/01/21 02:02:11;;;;;;;3.75;2.15;;;;;;;13.82;71.49;101182.47;4961364;28;20035;-87
2023/01/21 02:04:41;;;;;;;3.22;1.80;;;;;;;14.11;71.46;101235.44;4968908;28;20046;-87
2023/01/21 02:07:07;;;;;;;2.30;1.90;;;;;;;14.02;71.45;101216.63;4952742;28;20489;-87
2023/01/21 02:09:34;;;;;;;3.63;1.85;;;;;;;13.93;71.30;101193.47;4968115;28;20043;-87
2023/01/21 02:12:01;;;;;;;2.40;1.83;;;;;;;14.13;71.21;101235.50;4934490;29;20047;-87
2023/01/21 02:14:27;;;;;;;2.55;1.90;;;;;;;14.10;71.29;101232.75;4946751;29;20031;-87
2023/01/21 02:16:55;;;;;;;;;;;;;;;14.14;71.31;101227.72;4927122;29;20031;-87
2023/01/21 02:19:47;;;;;;;2.42;1.80;;;;;;;14.11;71.30;101235.44;4944117;28;20456;-87
2023/01/21 02:22:31;;;;;;;2.80;1.73;;;;;;;14.10;71.36;101224.88;4936171;29;20520;-87
2023/01/21 02:25:19;;;;;;;2.65;1.83;;;;;;;14.00;71.28;101211.28;4944947;28;20028;-87
2023/01/21 02:27:53;;;;;;;3.63;1.85;;;;;;;13.91;71.48;101191.59;4939844;29;20019;-87
2023/01/21 02:30:43;;;;;;;2.55;1.67;;;;;;;14.07;71.17;101228.22;4966418;28;20023;-87
2023/01/21 02:33:17;;;;;;;2.70;1.90;;;;;;;14.05;71.69;101237.75;4937594;29;20028;-87
2023/01/21 02:36:11;;;;;;;3.00;1.60;;;;;;;14.06;71.41;101234.31;4961584;28;20070;-87
2023/01/21 02:38:57;;;;;;;3.70;1.83;;;;;;;13.90;71.55;101213.41;4940876;28;20067;-88
2023/01/21 02:41:55;;;;;;;3.33;1.98;;;;;;;13.84;71.49;101209.69;4933467;29;20424;-87
2023/01/21 02:44:37;;;;;;;3.58;1.77;;;;;;;14.03;71.37;101248.22;4936921;28;20027;-87
2023/01/21 02:47:19;;;;;;;2.08;1.80;;;;;;;14.00;71.39;101241.91;4948565;29;20023;-87
2023/01/21 02:50:02;;;;;;;2.88;1.70;;;;;;;14.03;71.23;101244.66;4935750;28;20039;-87
2023/01/21 02:52:27;;;;;;;2.05;1.50;;;;;;;13.90;71.42;101227.44;4956124;28;20536;-87
2023/01/21 02:54:56;;;;;;;4.75;2.55;;;;;;;14.01;71.12;101252.50;4938597;29;20035;-87
2023/01/21 02:57:30;;;;;;;6.18;2.55;;;;;;;14.02;70.93;101248.13;4941245;29;20057;-87
2023/01/21 02:59:57;;;;;;;3.33;1.90;;;;;;;13.84;71.09;101220.19;4935825;29;20035;-87
2023/01/21 03:02:22;;;;;;;4.13;2.05;;;;;;;13.99;71.41;101248.91;4934548;29;20042;-86
2023/01/21 03:05:02;;;;;;;3.35;1.80;;;;;;;13.69;70.97;101187.03;4926922;29;20044;-87
2023/01/21 03:07:35;;;;;;;3.67;2.00;;;;;;;13.82;71.69;101218.28;4933655;29;20032;-87
2023/01/21 03:10:08;;;;;;;3.33;1.95;;;;;;;13.72;71.24;101189.81;4939177;29;20031;-87
2023/01/21 03:12:40;;;;;;;3.30;1.90;;;;;;;13.87;71.01;101222.03;4937878;28;20079;-87
2023/01/21 03:18:05;;;;;;;3.20;1.90;;;;;;;13.97;71.10;101257.50;4952080;28;20042;-87
2023/01/21 03:20:38;;;;;;;2.38;1.65;;;;;;;13.95;70.95;101248.66;4951043;28;20023;-86
2023/01/21 03:23:09;;;;;;;3.30;1.80;;;;;;;13.96;71.11;101253.09;4965995;28;20046;-86
2023/01/21 03:25:36;;;;;;;3.30;1.85;;;;;;;13.70;71.55;101223.84;4967080;28;20110;-87
2023/01/21 03:28:05;;;;;;;3.05;1.73;;;;;;;13.86;71.37;101259.59;4967006;28;20027;-87
2023/01/21 03:30:33;;;;;;;3.42;1.83;;;;;;;13.84;72.06;101262.19;4966050;28;20070;-87
2023/01/21 03:32:59;;;;;;;2.20;1.83;;;;;;;13.86;71.75;101267.50;4944415;28;20032;-87
2023/01/21 03:35:32;;;;;;;2.35;1.60;;;;;;;13.92;71.18;101270.41;4944404;28;20034;-86
2023/01/21 03:38:22;;;;;;;2.15;1.70;;;;;;;13.52;71.41;101209.81;4949354;28;20031;-87
2023/01/21 03:40:56;;;;;;;2.17;1.55;;;;;;;13.59;71.36;101225.97;4951531;28;20557;-87
2023/01/21 03:43:22;;;;;;;2.42;1.73;;;;;;;13.70;71.52;101239.59;4965450;28;20059;-87
2023/01/21 03:46:09;;;;;;;2.50;1.70;;;;;;;13.89;70.97;101274.63;4966927;28;20484;-87
2023/01/21 03:48:59;;;;;;;3.50;1.90;;;;;;;13.82;71.18;101269.09;4951635;28;20031;-87
2023/01/21 03:51:33;;;;;;;4.18;1.98;;;;;;;13.77;71.58;101259.19;4949235;28;20027;-87
2023/01/21 03:53:59;;;;;;;3.53;1.80;;;;;;;13.75;71.11;101259.09;4944440;28;20031;-87
2023/01/21 03:56:26;;;;;;;3.83;2.60;;;;;;;13.78;71.21;101271.50;4966170;28;20038;-87
2023/01/21 03:58:51;;;;;;;3.63;2.30;;;;;;;13.82;71.13;101281.28;4940590;28;20555;-87
2023/01/21 04:01:17;;;;;;;3.15;2.00;;;;;;;13.70;71.75;101243.97;4957167;28;20032;-88
2023/01/21 04:03:43;;;;;;;2.92;2.10;;;;;;;13.62;71.55;101239.22;4958628;28;20504;-87
2023/01/21 04:06:17;;;;;;;4.00;2.00;;;;;;;13.81;71.32;101275.16;4968379;28;20031;-87
2023/01/21 04:08:42;;;;;;;4.13;2.20;;;;;;;13.77;71.50;101277.56;4954209;28;20118;-88
2023/01/21 04:11:08;;;;;;;3.72;2.22;;;;;;;13.81;71.35;101282.13;4946550;28;20039;-87
2023/01/21 04:13:35;;;;;;;3.63;2.33;;;;;;;13.77;71.29;101275.81;4947549;28;20055;-87
2023/01/21 04:16:01;;;;;;;2.28;1.90;;;;;;;13.65;71.58;101259.47;4938110;29;20039;-87
2023/01/21 04:18:26;;;;;;;2.10;1.88;;;;;;;13.74;70.88;101270.44;4955356;28;20038;-87
2023/01/21 04:20:53;;;;;;;3.53;2.08;;;;;;;13.55;71.44;101252.88;4955403;28;20035;-87
2023/01/21 04:23:18;;;;;;;2.78;2.10;;;;;;;13.61;71.28;101257.53;4953241;28;20130;-87
2023/01/21 04:25:46;;;;;;;2.42;1.95;;;;;;;13.37;71.92;101230.97;4946950;28;20163;-88
2023/01/21 04:28:12;;;;;;;3.83;2.38;;;;;;;13.74;71.88;101291.44;4969641;28;20058;-87
2023/01/21 04:30:38;;;;;;;4.10;2.60;;;;;;;13.66;71.15;101282.28;4953727;28;20493;-88
2023/01/21 04:33:04;;;;;;;3.40;2.30;;;;;;;13.47;71.53;101242.81;4947084;28;20099;-88
2023/01/21 04:35:30;;;;;;;3.03;2.00;;;;;;;13.44;70.93;101248.81;4950827;28;20083;-87
2023/01/21 04:37:55;;;;;;;4.30;2.60;;;;;;;13.57;70.76;101266.97;4954984;28;20051;-88
2023/01/21 04:40:21;;;;;;;3.67;1.77;;;;;;;13.50;71.36;101253.47;4953891;28;20529;-86
2023/01/21 04:42:47;;;;;;;2.22;2.03;;;;;;;13.59;70.90;101273.19;4951038;28;20034;-86
2023/01/21 04:45:12;;;;;;;3.40;2.25;;;;;;;13.42;71.07;101254.00;4952813;28;20067;-86
2023/01/21 04:47:42;;;;;;;3.70;2.28;;;;;;;13.51;71.22;101276.25;4945930;28;20061;-87
2023/01/21 04:50:09;;;;;;;2.97;2.08;;;;;;;13.66;71.15;101305.88;4960690;28;20090;-86
2023/01/21 04:52:34;;;;;;;2.33;1.75;;;;;;;13.52;71.02;101285.91;4968580;28;20167;-87
2023/01/21 04:55:00;;;;;;;2.90;1.95;;;;;;;13.61;71.73;101315.28;4968104;28;20076;-86
2023/01/21 04:57:25;;;;;;;2.35;1.83;;;;;;;13.60;71.75;101324.84;4953116;28;20028;-87
2023/01/21 04:59:51;;;;;;;4.18;2.47;;;;;;;13.60;71.25;101318.69;4953821;28;20038;-86
2023/01/21 05:02:16;;;;;;;4.65;2.05;;;;;;;13.41;71.06;101296.78;4962122;28;20031;-86
2023/01/21 05:04:42;;;;;;;4.57;2.83;;;;;;;13.26;71.68;101258.34;4966660;28;20042;-87
2023/01/21 05:07:07;;;;;;;8.30;3.78;;;;;;;13.66;71.09;101333.88;4966039;28;20043;-86
2023/01/21 05:09:34;;;;;;;5.30;2.83;;;;;;;13.36;71.00;101286.88;4953407;28;20071;-86
2023/01/21 05:11:59;;;;;;;3.80;2.28;;;;;;;13.38;70.38;101288.75;4966739;28;20066;-86
2023/01/21 05:14:25;;;;;;;4.13;2.40;;;;;;;13.54;71.15;101321.91;4954609;28;20031;-86
2023/01/21 05:16:52;;;;;;;4.18;2.60;;;;;;;13.48;71.07;101307.56;4954259;28;20102;-86
2023/01/21 05:19:17;;;;;;;3.72;2.70;;;;;;;13.61;71.30;101338.88;4956950;28;20031;-87
2023/01/21 05:21:43;;;;;;;5.72;3.38;;;;;;;13.51;71.60;101321.75;4951755;28;20180;-86
2023/01/21 05:24:09;;;;;;;5.43;3.05;;;;;;;13.15;71.21;101256.06;4968055;28;20121;-85
2023/01/21 05:26:34;;;;;;;5.20;3.05;;;;;;;13.56;71.78;101337.75;4953641;28;20023;-85
2023/01/21 05:29:00;;;;;;;4.32;2.47;;;;;;;13.29;71.41;101293.50;4951833;28;20039;-85
2023/01/21 05:31:26;;;;;;;4.38;2.70;;;;;;;13.44;71.05;101333.69;4953481;28;20078;-85
2023/01/21 05:33:51;;;;;;;4.88;2.75;;;;;;;13.43;71.48;101330.97;4968423;28;20035;-85
2023/01/21 05:36:17;;;;;;;5.38;3.35;;;;;;;13.34;71.46;101323.53;4935858;28;20033;-85
2023/01/21 05:38:42;;;;;;;5.73;3.33;;;;;;;13.48;71.61;101353.06;4951639;28;20039;-84
2023/01/21 05:41:10;;;;;;;5.25;3.20;;;;;;;13.50;70.97;101361.94;4968117;28;20282;-85
2023/01/21 05:43:35;;;;;;;6.65;3.40;;;;;;;13.44;70.69;101357.28;4952304;28;20159;-84
2023/01/21 05:46:01;;;;;;;5.43;3.47;;;;;;;13.41;70.82;101367.59;4951931;28;20080;-84
2023/01/21 05:48:28;;;;;;;6.07;3.45;;;;;;;13.39;70.92;101355.22;4959100;28;20107;-85
2023/01/21 05:50:54;;;;;;;6.30;3.10;;;;;;;13.33;71.22;101349.66;4952966;28;20028;-85
2023/01/21 05:53:19;;;;;;;4.35;3.08;;;;;;;13.47;70.78;101376.63;4945256;28;20519;-85
2023/01/21 05:55:45;;;;;;;5.45;3.25;;;;;;;13.41;70.36;101374.59;4950806;28;20039;-84
2023/01/21 05:58:11;;;;;;;4.63;2.88;;;;;;;13.03;71.15;101300.00;4951979;28;20027;-85
2023/01/21 06:00:36;;;;;;;4.88;3.33;;;;;;;13.24;70.66;101332.59;4951815;28;20020;-86
2023/01/21 06:03:03;;;;;;;6.35;3.00;;;;;;;13.47;70.96;101377.53;4947824;28;20512;-86
2023/01/21 06:05:28;;;;;;;5.22;3.63;;;;;;;13.33;70.88;101361.06;4952850;28;20042;-85
2023/01/21 06:07:54;;;;;;;10.68;5.15;;;;;;;13.34;70.62;101373.38;4952969;28;20031;-87
2023/01/21 06:10:20;;;;;;;5.95;3.60;;;;;;;12.96;70.70;101309.28;4961012;28;20027;-85
2023/01/21 06:12:49;;;;;;;5.93;3.30;;;;;;;13.17;70.42;101361.06;4966784;28;20527;-86
2023/01/21 06:15:14;;;;;;;5.03;3.25;;;;;;;13.23;70.30;101375.38;4935658;28;20485;-85
2023/01/21 06:17:40;;;;;;;4.18;2.95;;;;;;;13.17;70.86;101366.31;4955782;28;20042;-87
2023/01/21 06:20:07;;;;;;;6.75;3.22;;;;;;;13.21;70.28;101379.66;4951282;28;20061;-88
2023/01/21 06:22:32;;;;;;;6.18;3.50;;;;;;;12.98;70.43;101344.34;4963732;28;20052;-86
2023/01/21 06:24:58;;;;;;;5.20;3.53;;;;;;;13.15;70.34;101376.69;4950239;28;20035;-88
2023/01/21 06:27:25;;;;;;;5.00;3.47;;;;;;;13.11;70.13;101368.59;4952546;28;20446;-87
2023/01/21 06:29:50;;;;;;;4.97;3.45;;;;;;;13.12;70.24;101373.00;4949938;28;20066;-85
2023/01/21 06:32:16;;;;;;;4.35;3.20;;;;;;;13.30;70.09;101400.25;4951570;28;20051;-85
2023/01/21 06:34:41;;;;;;;5.88;3.70;;;;;;;13.29;70.88;101397.53;4966638;28;20042;-86
2023/01/21 06:37:07;;;;;;;4.65;3.50;;;;;;;13.20;71.43;101387.44;4950227;28;20051;-86
2023/01/21 06:39:33;;;;;;;5.15;3.50;;;;;;;13.14;70.84;101377.50;4950961;28;20057;-86
2023/01/21 06:42:00;;;;;;;4.32;3.17;;;;;;;13.04;70.92;101368.25;4952832;28;20024;-87
2023/01/21 06:44:25;;;;;;;4.93;3.20;;;;;;;13.03;70.35;101365.56;4966828;28;20035;-87
2023/01/21 06:46:51;;;;;;;4.78;3.38;;;;;;;13.21;71.22;101399.75;4953644;28;20114;-85
2023/01/21 06:49:17;;;;;;;5.88;3.40;;;;;;;12.99;71.29;101364.47;4960694;28;20483;-85
2023/01/21 06:51:42;;;;;;;5.38;3.50;;;;;;;12.71;70.83;101335.88;4962584;28;20074;-88
2023/01/21 06:54:09;;;;;;;5.43;3.70;;;;;;;13.17;70.75;101408.25;4952833;28;20449;-86
2023/01/21 06:56:35;;;;;;;4.88;3.50;;;;;;;12.97;70.73;101378.31;4948430;28;20036;-87
2023/01/21 06:59:02;;;;;;;6.00;3.90;;;;;;;13.15;70.57;101412.53;4965002;28;20035;-87
2023/01/21 07:01:28;;;;;;;6.05;4.20;;;;;;;12.73;70.45;101338.59;4947506;28;20053;-87
2023/01/21 07:03:54;;;;;;;4.85;3.58;;;;;;;12.94;70.70;101373.81;4944308;28;20062;-87
2023/01/21 07:06:21;;;;;;;6.57;3.95;;;;;;;13.23;70.43;101411.22;4963673;28;20035;-87
2023/01/21 07:08:47;;;;;;;7.72;4.65;;;;;;;13.03;70.43;101389.16;4950996;28;20038;-86
2023/01/21 07:11:13;;;;;;;6.32;4.30;;;;;;;12.92;70.43;101357.13;4962088;28;20048;-87
2023/01/21 07:13:38;;;;;;;7.40;4.68;;;;;;;12.85;70.69;101362.84;4945602;28;20172;-86
2023/01/21 07:16:04;;;;;;;7.07;4.47;;;;;;;13.20;70.66;101425.03;4965536;28;20110;-88
2023/01/21 07:18:30;;;;;;;5.75;3.63;;;;;;;12.94;71.29;101365.97;4947641;28;20474;-85
2023/01/21 07:20:57;;;;;;;7.38;3.92;;;;;;;12.97;70.79;101400.19;4955518;28;20154;-87
2023/01/21 07:23:23;;;;;;;6.13;3.85;;;;;;;12.96;71.05;101401.03;4957017;28;20019;-87
2023/01/21 07:25:50;;;;;;;6.35;3.90;;;;;;;12.97;71.04;101392.34;4962729;28;20402;-89
2023/01/21 07:28:15;;;;;;;5.75;4.18;;;;;;;13.14;70.70;101423.81;4967988;28;20035;-89
2023/01/21 07:30:41;;;;;;;7.03;4.00;;;;;;;13.17;70.91;101431.88;4964463;28;20043;-89
2023/01/21 07:33:08;;;;;;;6.13;4.30;;;;;;;13.20;70.90;101437.25;4949190;28;20039;-90
2023/01/21 07:35:37;;;;;;;6.18;4.13;;;;;;;13.10;71.35;101425.41;4955231;28;20027;-89
2023/01/21 07:38:03;;;;;;;6.50;3.60;;;;;;;13.21;71.21;101445.22;4938280;28;20035;-87
2023/01/21 07:40:29;;;;;;;6.40;4.13;;;;;;;13.01;70.93;101431.00;4948969;28;20030;-87
2023/01/21 07:42:56;;;;;;;5.22;4.07;;;;;;;12.83;70.97;101391.59;4939944;28;20035;-89
2023/01/21 07:45:23;;;;;;;5.00;4.00;;;;;;;13.02;70.82;101424.06;4938316;29;20035;-88
2023/01/21 07:47:49;;;;;;;7.22;3.88;;;;;;;13.20;71.35;101446.03;4941227;28;20027;-89
2023/01/21 07:50:15;;;;;;;6.63;4.05;;;;;;;13.11;70.94;101431.53;4966402;28;20925;-89
2023/01/21 07:52:41;;;;;;;6.05;4.05;;;;;;;13.14;71.73;101429.06;4950791;28;20078;-91
2023/01/21 07:55:07;;;;;;;7.68;4.50;;;;;;;12.99;71.02;101424.78;4938633;28;20497;-89
2023/01/21 07:57:32;;;;;;;6.95;4.63;;;;;;;12.97;71.20;101421.16;4938477;29;20030;-90
2023/01/21 08:00:05;;;;;;;7.57;5.10;;;;;;;13.14;71.44;101452.66;4955767;28;20031;-90
2023/01/21 08:02:32;;;;;;;7.38;4.72;;;;;;;13.06;71.27;101436.53;4941375;29;20054;-90
2023/01/21 08:05:00;;;;;;;6.05;4.20;;;;;;;13.10;71.39;101442.81;4954827;28;20497;-90
2023/01/21 08:07:26;;;;;;;6.60;4.35;;;;;;;13.04;71.58;101436.44;4969609;28;20572;-90
2023/01/21 08:09:57;;;;;;;8.45;5.97;;;;;;;13.18;71.32;101473.88;4955153;28;20455;-90
2023/01/21 08:12:23;;;;;;;8.90;5.75;;;;;;;13.01;71.24;101441.50;4965082;28;20141;-90
2023/01/21 08:14:48;;;;;;;6.32;4.78;;;;;;;13.19;71.16;101472.19;4951466;28;20123;-90
2023/01/21 08:17:14;;;;;;;9.27;5.07;;;;;;;13.01;71.37;101446.75;4954863;28;20039;-90
2023/01/21 08:19:45;;;;;;;6.05;4.18;;;;;;;13.17;71.36;101476.44;4937405;29;20074;-90
2023/01/21 08:22:11;;;;;;;5.75;4.15;;;;;;;13.18;71.28;101480.84;4954892;28;20027;-87
2023/01/21 08:24:36;;;;;;;7.03;4.95;;;;;;;12.90;71.28;101426.91;4943978;29;20035;-88
2023/01/21 08:27:02;;;;;;;7.03;4.72;;;;;;;13.20;71.58;101480.13;4955481;28;20489;-87
2023/01/21 08:29:29;;;;;;;10.65;5.53;;;;;;;13.07;71.57;101445.28;4954452;28;20028;-89
2023/01/21 08:31:56;;;;;;;12.57;6.00;;;;;;;13.18;71.63;101475.63;4950752;28;20032;-88
2023/01/21 08:34:24;;;;;;;11.05;6.07;;;;;;;13.04;71.64;101452.16;4950934;28;20028;-88
2023/01/21 08:36:50;;;;;;;14.00;8.13;;;;;;;12.93;71.65;101434.03;4950896;28;20026;-89
2023/01/21 08:39:16;;;;;;;12.02;6.80;;;;;;;13.11;71.57;101449.88;4939697;28;20086;-89
2023/01/21 08:41:44;;;;;;;7.63;5.20;;;;;;;13.07;71.94;101448.81;4953848;28;20051;-90
2023/01/21 08:44:10;;;;;;;10.13;5.43;;;;;;;13.15;72.01;101463.25;4948306;28;20055;-90
2023/01/21 08:46:37;;;;;;;9.13;5.00;;;;;;;13.06;72.00;101435.59;4951281;28;20024;-90
2023/01/21 08:49:10;;;;;;;11.45;5.53;;;;;;;12.89;72.23;101418.94;4938555;29;20039;-89
2023/01/21 08:51:35;;;;;;;9.32;5.18;;;;;;;13.09;72.21;101454.16;4948315;28;20102;-90
2023/01/21 08:54:01;;;;;;;11.85;5.60;;;;;;;12.93;72.32;101432.34;4954451;28;20482;-90
2023/01/21 08:56:29;;;;;;;10.20;5.25;;;;;;;12.98;72.77;101438.72;4948522;28;20031;-90
2023/01/21 08:58:56;;;;;;;11.98;5.72;;;;;;;13.04;72.50;101448.66;4965233;28;20114;-91
2023/01/21 09:01:24;;;;;;;11.65;5.35;;;;;;;12.96;72.68;101445.59;4946502;28;20038;-90
2023/01/21 09:03:59;;;;;;;9.43;5.72;;;;;;;12.89;72.99;101432.06;4952718;28;20019;-91
2023/01/21 09:06:29;;;;;;;11.25;5.38;;;;;;;13.01;73.12;101451.97;4970547;28;20034;-91
2023/01/21 09:08:58;;;;;;;8.57;5.40;;;;;;;12.96;73.37;101428.97;4970343;28;20023;-91
2023/01/21 09:11:29;;;;;;;9.70;5.40;;;;;;;13.10;73.48;101453.31;4957301;28;20156;-91
2023/01/21 09:13:59;;;;;;;9.27;5.80;;;;;;;13.03;73.21;101439.84;4938944;28;20047;-91
2023/01/21 09:16:42;;;;;;;9.73;5.45;;;;;;;12.96;73.18;101424.63;4956553;28;20433;-90
2023/01/21 09:19:13;;;;;;;11.20;5.50;;;;;;;12.97;73.68;101410.69;4970994;28;20732;-90
2023/01/21 09:21:39;;;;;;;10.48;6.07;;;;;;;12.96;73.91;101413.25;4940031;28;20134;-90
2023/01/21 09:24:29;;;;;;;10.60;6.10;;;;;;;13.11;74.64;101432.41;4964007;28;20505;-91
2023/01/21 09:26:58;;;;;;;9.45;5.57;;;;;;;13.05;74.08;101418.97;4953274;28;20041;-92
2023/01/21 09:29:25;;;;;;;10.52;5.70;;;;;;;12.96;74.42;101401.03;4966764;28;20523;-90
2023/01/21 09:31:50;;;;;;;11.65;6.25;;;;;;;13.12;74.67;101434.25;4965306;28;20046;-91
2023/01/21 09:34:19;;;;;;;10.45;5.40;;;;;;;13.12;74.95;101436.88;4941669;28;20106;-91
2023/01/21 09:37:00;;;;;;;9.30;5.50;;;;;;;12.84;75.07;101388.16;4971190;28;20523;-92
2023/01/21 09:39:33;;;;;;;8.10;5.53;;;;;;;12.85;74.61;101383.81;4973519;28;20515;-91
2023/01/21 09:42:03;;;;;;;11.60;5.85;;;;;;;13.13;74.83;101424.66;4967097;28;20027;-90
2023/01/21 09:44:48;;;;;;;8.70;5.85;;;;;;;13.14;74.72;101434.31;4954667;28;20058;-91
2023/01/21 09:47:27;;;;;;;16.05;6.40;;;;;;;13.13;74.83;101428.16;4959813;28;20019;-91
2023/01/21 09:50:09;;;;;;;9.60;5.53;;;;;;;13.18;74.77;101423.16;4951274;28;20067;-89
2023/01/21 09:52:53;;;;;;;10.68;5.38;;;;;;;13.06;75.13;101402.44;4953729;28;20059;-90
2023/01/21 09:55:40;;;;;;;13.88;6.18;;;;;;;13.13;75.57;101411.53;4952717;28;20063;-91
2023/01/21 09:58:37;;;;;;;9.27;5.50;;;;;;;13.15;75.54;101417.75;4949011;28;20023;-91
2023/01/21 10:01:27;;;;;;;10.25;5.43;;;;;;;13.15;75.50;101423.00;4968179;28;20096;-90
2023/01/21 10:03:58;;;;;;;10.45;5.85;;;;;;;13.16;75.84;101430.03;4932778;28;20035;-90
2023/01/21 10:06:37;;;;;;;10.18;5.57;;;;;;;13.17;75.55;101422.28;4945411;28;20074;-92
2023/01/21 10:09:23;;;;;;;15.05;6.05;;;;;;;13.26;76.17;101402.59;4960888;28;20032;-91
2023/01/21 10:12:27;;;;;;;10.30;5.40;;;;;;;13.30;76.17;101410.75;4961387;28;20023;-92
2023/01/21 10:15:26;;;;;;;10.88;5.47;;;;;;;13.24;76.97;101403.41;4957943;28;20035;-91
2023/01/21 10:18:22;;;;;;;12.18;5.45;;;;;;;12.58;77.01;101296.75;4892556;29;20176;-91
2023/01/21 10:21:14;;;;;;;10.60;5.63;;;;;;;13.18;77.37;101404.81;4879053;29;20415;-91
2023/01/21 10:23:56;;;;;;;10.88;5.28;;;;;;;13.08;77.46;101387.69;4891307;29;20040;-90
2023/01/21 10:26:31;;;;;;;8.55;4.80;;;;;;;12.93;77.75;101356.31;4890262;29;20024;-90
2023/01/21 10:29:06;;;;;;;9.20;5.35;;;;;;;12.63;77.79;101304.00;4944678;28;20070;-92
2023/01/21 10:31:38;;;;;;;10.18;5.13;;;;;;;13.17;77.96;101385.56;4942742;28;20497;-94
2023/01/21 10:34:44;;;;;;;12.35;5.38;;;;;;;13.18;78.17;101389.97;4954662;28;20035;-94
2023/01/21 10:40:43;;;;;;;15.13;5.93;;;;;;;12.94;78.27;101337.13;4948702;28;20143;-91
2023/01/21 10:43:23;;;;;;;14.13;5.13;;;;;;;13.20;78.65;101380.44;4946039;28;20024;-91
2023/01/21 10:46:14;;;;;;;13.98;5.90;;;;;;;13.21;78.52;101378.75;4948216;28;20174;-90
2023/01/21 10:48:44;;;;;;;13.50;5.90;;;;;;;13.21;78.55;101371.78;4950018;28;20086;-91
2023/01/21 10:51:26;;;;;;;10.65;5.43;;;;;;;13.10;78.23;101357.22;4950503;28;20039;-90
2023/01/21 10:54:34;;;;;;;10.95;5.50;;;;;;;13.23;78.43;101377.13;4931108;29;20063;-91
2023/01/21 10:57:31;;;;;;;16.17;5.70;;;;;;;13.26;78.81;101379.00;4966653;28;20063;-91
2023/01/21 11:00:18;;;;;;;13.30;5.35;;;;;;;13.25;78.90;101367.63;4946257;28;20036;-92
2023/01/21 11:02:49;;;;;;;15.32;6.10;;;;;;;13.14;78.83;101342.53;4950686;28;20075;-91
2023/01/21 11:05:15;;;;;;;10.95;5.63;;;;;;;13.28;79.22;101370.38;4952948;28;20062;-92
2023/01/21 11:07:48;;;;;;;12.30;5.82;;;;;;;13.22;79.47;101370.94;4936632;29;20027;-92
2023/01/21 11:10:19;;;;;;;11.52;5.25;;;;;;;13.14;79.25;101359.16;4956177;28;20035;-91
2023/01/21 11:12:46;;;;;;;11.70;5.70;;;;;;;13.18;79.33;101370.72;4955275;28;20051;-91
2023/01/21 11:15:18;;;;;;;15.50;6.00;;;;;;;13.03;79.12;101340.22;4955665;28;20023;-91
2023/01/21 11:17:55;;;;;;;11.13;5.20;;;;;;;13.26;79.24;101379.00;4956735;28;20038;-91
2023/01/21 11:20:38;;;;;;;12.82;5.45;;;;;;;12.99;79.52;101330.41;4952243;28;20706;-88
2023/01/21 11:23:09;;;;;;;12.25;5.60;;;;;;;13.20;79.27;101361.19;4963715;28;20505;-89
2023/01/21 11:25:37;;;;;;;11.70;5.20;;;;;;;13.14;79.52;101353.91;4953802;28;20031;-89
2023/01/21 11:28:04;;;;;;;13.68;5.55;;;;;;;13.03;79.41;101336.72;4971706;28;20023;-88
2023/01/21 11:31:07;;;;;;;9.82;5.05;;;;;;;13.27;79.24;101367.66;4955781;28;20043;-90
2023/01/21 11:33:34;;;;;;;11.18;5.47;;;;;;;13.14;79.35;101347.75;4970023;28;20097;-88
2023/01/21 11:36:11;;;;;;;10.07;4.93;;;;;;;13.22;79.33;101359.56;4969982;28;20421;-88
2023/01/21 11:38:38;;;;;;;11.60;4.80;;;;;;;13.30;79.47;101367.88;4971061;28;20063;-89
2023/01/21 11:41:14;;;;;;;12.82;5.57;;;;;;;13.31;79.33;101373.19;4955634;28;20031;-89
2023/01/21 11:43:54;;;;;;;11.77;5.30;;;;;;;13.14;79.68;101346.03;4955567;28;20110;-89
2023/01/21 11:46:39;;;;;;;9.70;5.60;;;;;;;13.21;79.72;101358.66;4937656;29;20291;-89